Al-Jouf, Saudi Arabia

8:54 AM AST on July 27, 2016 (GMT +0300)
Al Jouf | | Change Station

Elev 2260 ft 29.79 °N, 40.10 °E | Updated 54 minutes ago

Clear
Clear
86 °F
Feels Like 86 °F
N
10
Wind Variable Wind from NW

Today
High -- | Low -- °F
--% Chance of Precip.
Yesterday
High -- | Low -- °F
Precip. -- in
Pressure 29.80 in
Visibility -9999.0 miles
Clouds
Dew Point 46 °F
Humidity 25%
Rainfall 0.00 in
Snow Depth Not available.
5:36 AM 7:15 PM
Waning Gibbous, 47% visible
METAR OESK 270500Z 31009KT CAVOK 30/08 Q1009 NOSIG
Pressure 29.80 in
Visibility -9999.0 miles
Clouds
Dew Point 46 °F
Humidity 25%
Rainfall 0.00 in
Snow Depth Not available.
5:36 AM 7:15 PM
Waning Gibbous, 47% visible
METAR OESK 270500Z 31009KT CAVOK 30/08 Q1009 NOSIG

10-Day Weather Forecast

No radar image for this location.
×

Almanac

Astronomy

Jul. 27, 2016 Rise Set
Actual Time
Civil Twilight
Nautical Twilight
Astronomical Twilight
Moon
Length of Visible Light
Length of Day
Tomorrow will be .
, % of the Moon is Illuminated

Today's Extremes

Country Highs Country Lows

Community

WunderPhotos

Upload Photos

1,927,818 photos uploaded!

WunderBlog® & News

Nearby

Air Quality

  Air Quality AQ Index Pollutant
Not available.

Snow Depth

Station Depth Elevation

Earthquake Activity

City Distance Mag. Time & Date
Minimum magnitude displayed is 2.5.

Coastal Water Temperatures

Place Temperature

Stations

Nearby Weather Stations

Station Location Temp. Windchill Dew Point Humidity Wind Precip. Elev Updated Type